Terminal Aerodrome Forecast
Issued by NWS Charleston, WV

Current Version | Previous Version | Text Only | Print | Product List | Glossary Off
Versions: 1 2 3 4 5 6 7 8 9 10 11 12 13 14 15 16 17 18 19 20 21 22 23 24

469
FTUS41 KRLX 270246 AAA
TAFBKW
TAF AMD
KBKW 270246Z 2703/2724 27006KT P6SM FEW250
     FM271400 24008G16KT 6SM -SHRA VCTS BKN030CB
     FM271700 25008G16KT 5SM SHRA VCTS BKN020CB=

USA.gov is the U.S. government's official web portal to all federal, state and local government web resources and services.